createdAt,value
2023-02-26T00:00:26.211Z,1.40
2023-02-26T00:01:32.148Z,1.23
2023-02-26T00:02:35.350Z,1.45
2023-02-26T00:03:37.997Z,1.45
2023-02-26T00:04:41.565Z,1.52
2023-02-26T00:05:44.128Z,1.67
2023-02-26T00:06:53.339Z,1.75
2023-02-26T00:07:59.410Z,1.48
2023-02-26T00:09:02.141Z,1.42
2023-02-26T00:10:07.402Z,1.50
2023-02-26T00:11:11.050Z,1.42
2023-02-26T00:12:13.498Z,1.55
2023-02-26T00:13:16.228Z,1.27
2023-02-26T00:14:19.303Z,1.20
2023-02-26T00:15:22.193Z,1.15
2023-02-26T00:16:36.212Z,1.40
2023-02-26T00:17:56.934Z,1.58
2023-02-26T00:19:04.551Z,1.70
2023-02-26T00:20:07.847Z,1.55
2023-02-26T00:21:19.110Z,1.70
2023-02-26T00:22:21.946Z,1.17
2023-02-26T00:23:24.765Z,1.40
2023-02-26T00:24:27.088Z,1.48
2023-02-26T00:25:29.439Z,1.30
2023-02-26T00:26:33.380Z,1.40
2023-02-26T00:27:36.195Z,1.33
2023-02-26T00:28:39.087Z,1.30
2023-02-26T00:29:41.689Z,1.33
2023-02-26T00:30:44.152Z,1.65
2023-02-26T00:31:46.961Z,1.63
2023-02-26T00:32:49.678Z,1.63
2023-02-26T00:33:54.150Z,1.30
2023-02-26T00:34:57.321Z,1.70
2023-02-26T00:36:29.621Z,1.48
2023-02-26T00:37:51.540Z,1.33
2023-02-26T00:39:24.490Z,1.25
2023-02-26T00:40:46.850Z,1.38
2023-02-26T00:41:49.502Z,0.98
2023-02-26T00:42:52.128Z,1.42
2023-02-26T00:43:54.607Z,1.40
2023-02-26T00:44:57.246Z,1.02
2023-02-26T00:46:26.276Z,1.45
2023-02-26T00:47:48.595Z,1.30
2023-02-26T00:49:15.970Z,1.27
2023-02-26T00:50:21.295Z,1.50
2023-02-26T00:51:44.151Z,1.25
2023-02-26T00:52:59.772Z,1.23
2023-02-26T00:54:23.450Z,1.02
2023-02-26T00:55:28.495Z,1.23
2023-02-26T00:56:31.545Z,1.33
2023-02-26T00:57:34.033Z,1.20
2023-02-26T00:58:36.341Z,1.38
2023-02-26T00:59:39.207Z,1.20
2023-02-26T01:00:41.706Z,1.50
2023-02-26T01:01:44.958Z,1.50
2023-02-26T01:02:49.238Z,1.45
2023-02-26T01:03:51.892Z,1.02
2023-02-26T01:04:56.139Z,1.05
2023-02-26T01:05:58.712Z,1.50
2023-02-26T01:07:01.406Z,1.27
2023-02-26T01:08:20.579Z,1.35
2023-02-26T01:09:28.786Z,1.40
2023-02-26T01:10:32.112Z,1.13
2023-02-26T01:11:35.782Z,0.98
2023-02-26T01:12:38.564Z,0.90
2023-02-26T01:13:41.287Z,1.30
2023-02-26T01:14:44.738Z,1.00
2023-02-26T01:15:53.134Z,1.10
2023-02-26T01:17:25.121Z,1.20
2023-02-26T01:19:52.412Z,0.95
2023-02-26T01:21:02.561Z,0.93
2023-02-26T01:22:19.452Z,1.30
2023-02-26T01:23:26.562Z,1.15
2023-02-26T01:24:31.337Z,1.00
2023-02-26T01:25:43.130Z,1.25
2023-02-26T01:26:47.606Z,1.10
2023-02-26T01:27:50.093Z,1.05
2023-02-26T01:28:53.042Z,1.05
2023-02-26T01:29:55.747Z,1.13
2023-02-26T01:31:02.059Z,0.88
2023-02-26T01:32:18.464Z,0.88
2023-02-26T01:33:35.293Z,1.00
2023-02-26T01:34:46.976Z,1.00
2023-02-26T01:36:08.923Z,1.02
2023-02-26T01:37:25.287Z,1.17
2023-02-26T01:38:28.426Z,1.40
2023-02-26T01:39:51.572Z,1.00
2023-02-26T01:41:05.613Z,1.02
2023-02-26T01:42:23.456Z,1.20
2023-02-26T01:43:37.355Z,1.02
2023-02-26T01:45:02.370Z,1.10
2023-02-26T01:46:23.071Z,1.00
2023-02-26T01:47:44.121Z,1.45
2023-02-26T01:48:57.706Z,1.40
2023-02-26T01:50:15.438Z,1.10
2023-02-26T01:51:19.821Z,1.38
2023-02-26T01:52:34.994Z,0.95
2023-02-26T01:53:37.424Z,1.15
2023-02-26T01:54:39.769Z,1.10
2023-02-26T01:55:45.537Z,1.00
2023-02-26T01:56:55.131Z,1.00
2023-02-26T01:58:00.931Z,1.10
2023-02-26T01:59:06.063Z,1.02
2023-02-26T02:00:09.596Z,1.08
2023-02-26T02:01:14.693Z,1.35
2023-02-26T02:02:22.669Z,1.02
2023-02-26T02:03:27.716Z,1.17
2023-02-26T02:04:32.602Z,1.55
2023-02-26T02:05:45.252Z,1.25
2023-02-26T02:06:48.856Z,1.40
2023-02-26T02:07:51.304Z,1.00
2023-02-26T02:08:53.813Z,1.20
2023-02-26T02:09:58.601Z,1.20
2023-02-26T02:11:02.871Z,0.93
2023-02-26T02:12:13.737Z,1.05
2023-02-26T02:13:35.324Z,1.17
2023-02-26T02:14:44.135Z,0.90
2023-02-26T02:16:00.274Z,0.88
2023-02-26T02:17:27.310Z,0.82
2023-02-26T02:18:48.202Z,0.93
2023-02-26T02:20:10.101Z,0.90
2023-02-26T02:21:54.240Z,0.73
2023-02-26T02:23:17.803Z,0.90
2023-02-26T02:24:36.243Z,0.75
2023-02-26T02:26:21.918Z,0.70
2023-02-26T02:27:43.592Z,1.00
2023-02-26T02:30:16.472Z,0.77
2023-02-26T02:31:28.122Z,0.85
2023-02-26T02:32:44.155Z,0.68
2023-02-26T02:34:00.266Z,0.98
2023-02-26T02:35:13.996Z,0.88
2023-02-26T02:36:47.033Z,0.90
2023-02-26T02:37:58.537Z,0.60
2023-02-26T02:39:13.812Z,0.70
2023-02-26T02:40:24.250Z,1.05
2023-02-26T02:41:36.260Z,0.80
2023-02-26T02:42:47.313Z,0.90
2023-02-26T02:43:51.840Z,0.70
2023-02-26T02:45:01.790Z,0.70
2023-02-26T02:46:11.643Z,1.05
2023-02-26T02:47:17.113Z,0.73
2023-02-26T02:48:31.524Z,0.85
2023-02-26T02:49:53.926Z,0.90
2023-02-26T02:51:09.439Z,0.73
2023-02-26T02:52:35.606Z,0.77
2023-02-26T02:53:46.334Z,0.80
2023-02-26T02:54:58.652Z,0.93
2023-02-26T02:56:30.585Z,0.93
2023-02-26T02:58:44.611Z,0.85
2023-02-26T03:00:10.594Z,0.82
2023-02-26T03:01:20.145Z,0.90
2023-02-26T03:02:36.814Z,0.70
2023-02-26T03:03:45.660Z,0.63
2023-02-26T03:04:48.751Z,0.70
2023-02-26T03:05:51.273Z,0.90
2023-02-26T03:06:56.385Z,0.60
2023-02-26T03:08:11.985Z,0.70
2023-02-26T03:09:14.557Z,0.90
2023-02-26T03:10:18.351Z,1.00
2023-02-26T03:11:21.575Z,0.70
2023-02-26T03:12:27.282Z,0.80
2023-02-26T03:13:29.828Z,0.85
2023-02-26T03:14:38.475Z,0.70
2023-02-26T03:16:11.459Z,0.80
2023-02-26T03:17:32.729Z,0.52
2023-02-26T03:18:47.267Z,0.68
2023-02-26T03:20:27.626Z,0.70
2023-02-26T03:21:53.164Z,0.80
2023-02-26T03:23:21.234Z,0.52
2023-02-26T03:24:50.307Z,0.88
2023-02-26T03:26:03.259Z,55.50
2023-02-26T03:27:11.584Z,96.47
2023-02-26T03:28:46.241Z,95.85
2023-02-26T03:30:04.407Z,71.35
2023-02-26T03:31:22.850Z,55.42
2023-02-26T03:32:31.055Z,47.22
2023-02-26T03:33:54.457Z,37.17
2023-02-26T03:35:09.487Z,29.92
2023-02-26T03:36:24.725Z,25.02
2023-02-26T03:37:51.383Z,22.80
2023-02-26T03:39:04.772Z,19.35
2023-02-26T03:40:13.816Z,18.38
2023-02-26T03:41:25.861Z,16.45
2023-02-26T03:42:43.985Z,15.73
2023-02-26T03:44:01.373Z,15.52
2023-02-26T03:45:14.309Z,14.32
2023-02-26T03:46:24.621Z,15.73
2023-02-26T03:47:28.075Z,14.07
2023-02-26T03:48:36.186Z,14.30
2023-02-26T03:49:46.959Z,14.82
2023-02-26T03:51:00.590Z,14.27
2023-02-26T03:52:30.101Z,14.15
2023-02-26T03:54:13.139Z,14.05
2023-02-26T03:55:28.862Z,14.43
2023-02-26T03:56:47.365Z,13.52
2023-02-26T03:57:50.378Z,14.23
2023-02-26T03:59:15.402Z,13.15
2023-02-26T04:00:21.159Z,13.25
2023-02-26T04:01:28.944Z,47.97
2023-02-26T04:02:39.008Z,32.80
2023-02-26T04:03:57.572Z,27.92
2023-02-26T04:05:08.272Z,52.65
2023-02-26T04:06:11.237Z,20.80
2023-02-26T04:07:16.091Z,15.07
2023-02-26T04:08:20.371Z,12.35
2023-02-26T04:09:23.467Z,10.23
2023-02-26T04:10:50.212Z,9.00
2023-02-26T04:11:54.616Z,9.85
2023-02-26T04:13:00.559Z,9.98
2023-02-26T04:14:03.578Z,11.07
2023-02-26T04:15:13.082Z,10.63
2023-02-26T04:16:17.551Z,11.85
2023-02-26T04:17:20.895Z,11.57
2023-02-26T04:18:23.471Z,12.18
2023-02-26T04:19:25.862Z,11.80
2023-02-26T04:20:28.841Z,12.13
2023-02-26T04:21:31.210Z,12.45
2023-02-26T04:22:36.166Z,12.63
2023-02-26T04:23:38.799Z,10.98
2023-02-26T04:24:41.169Z,11.30
2023-02-26T04:25:46.206Z,11.15
2023-02-26T04:26:50.683Z,11.60
2023-02-26T04:27:53.783Z,11.82
2023-02-26T04:28:56.405Z,12.25
2023-02-26T04:29:58.825Z,11.77
2023-02-26T04:31:01.529Z,11.75
2023-02-26T04:32:04.104Z,12.30
2023-02-26T04:33:06.920Z,11.73
2023-02-26T04:34:09.416Z,12.05
2023-02-26T04:35:11.796Z,12.15
2023-02-26T04:36:14.294Z,11.70
2023-02-26T04:37:16.831Z,12.32
2023-02-26T04:38:19.649Z,12.18
2023-02-26T04:39:22.102Z,18.77
2023-02-26T04:40:24.699Z,42.03
2023-02-26T04:41:27.769Z,19.98
2023-02-26T04:42:30.473Z,24.25
2023-02-26T04:43:33.201Z,11.38
2023-02-26T04:45:04.897Z,7.45
2023-02-26T04:46:09.348Z,17.77
2023-02-26T04:47:12.086Z,14.60
2023-02-26T04:48:15.841Z,14.68
2023-02-26T04:49:18.277Z,13.35
2023-02-26T04:50:21.293Z,11.63
2023-02-26T04:51:28.071Z,10.73
2023-02-26T04:52:30.668Z,12.80
2023-02-26T04:53:34.113Z,11.75
2023-02-26T04:54:37.872Z,12.50
2023-02-26T04:55:41.291Z,12.02
2023-02-26T04:56:43.727Z,11.85
2023-02-26T04:57:46.168Z,11.18
2023-02-26T04:58:48.569Z,9.85
2023-02-26T04:59:56.346Z,11.18
2023-02-26T05:01:03.143Z,10.27
2023-02-26T05:02:05.885Z,10.50
2023-02-26T05:03:09.968Z,11.70
2023-02-26T05:04:12.697Z,10.75
2023-02-26T05:05:17.366Z,10.48
2023-02-26T05:06:19.691Z,10.65
2023-02-26T05:07:22.108Z,10.45
2023-02-26T05:08:25.267Z,10.60
2023-02-26T05:09:27.736Z,10.85
2023-02-26T05:10:30.164Z,10.10
2023-02-26T05:11:32.864Z,10.57
2023-02-26T05:12:35.360Z,10.07
2023-02-26T05:13:38.091Z,14.15
2023-02-26T05:14:40.467Z,13.95
2023-02-26T05:15:42.948Z,14.55
2023-02-26T05:16:47.735Z,18.20
2023-02-26T05:17:50.147Z,16.45
2023-02-26T05:18:52.666Z,15.85
2023-02-26T05:19:56.965Z,14.68
2023-02-26T05:21:00.033Z,13.60
2023-02-26T05:22:02.636Z,12.68
2023-02-26T05:23:05.411Z,11.60
2023-02-26T05:24:08.792Z,11.93
2023-02-26T05:25:14.422Z,11.48
2023-02-26T05:26:16.919Z,11.35
2023-02-26T05:27:19.296Z,12.57
2023-02-26T05:28:24.706Z,12.35
2023-02-26T05:29:27.125Z,11.50
2023-02-26T05:30:29.740Z,13.65
2023-02-26T05:31:32.282Z,47.13
2023-02-26T05:32:35.925Z,35.97
2023-02-26T05:33:38.356Z,32.13
2023-02-26T05:34:40.812Z,29.92
2023-02-26T05:35:43.274Z,26.98
2023-02-26T05:36:45.726Z,27.42
2023-02-26T05:37:48.659Z,25.40
2023-02-26T05:38:51.054Z,23.50
2023-02-26T05:39:53.488Z,20.40
2023-02-26T05:40:59.083Z,18.38
2023-02-26T05:42:01.452Z,11.18
2023-02-26T05:43:03.950Z,20.92
2023-02-26T05:44:08.150Z,20.63
2023-02-26T05:45:10.944Z,19.17
2023-02-26T05:46:14.142Z,17.80
2023-02-26T05:47:19.372Z,17.42
2023-02-26T05:48:24.413Z,18.52
2023-02-26T05:49:27.230Z,16.48
2023-02-26T05:50:30.544Z,17.30
2023-02-26T05:51:35.915Z,16.27
2023-02-26T05:52:38.301Z,16.17
2023-02-26T05:53:43.735Z,16.30
2023-02-26T05:54:46.192Z,16.38
2023-02-26T05:55:48.774Z,17.38
2023-02-26T05:56:51.185Z,16.42
2023-02-26T05:57:53.940Z,14.70
2023-02-26T05:58:56.732Z,16.17
2023-02-26T05:59:59.592Z,15.45
2023-02-26T06:01:02.026Z,62.13
2023-02-26T06:02:04.703Z,55.95
2023-02-26T06:03:07.100Z,45.08
2023-02-26T06:04:09.919Z,46.17
2023-02-26T06:05:12.412Z,40.67
2023-02-26T06:06:18.043Z,40.28
2023-02-26T06:07:20.548Z,37.90
2023-02-26T06:08:22.992Z,33.20
2023-02-26T06:09:25.305Z,30.38
2023-02-26T06:10:27.721Z,29.00
2023-02-26T06:11:33.802Z,26.23
2023-02-26T06:12:37.222Z,25.52
2023-02-26T06:13:39.697Z,24.35
2023-02-26T06:14:42.128Z,24.90
2023-02-26T06:15:44.922Z,23.95
2023-02-26T06:16:48.595Z,22.63
2023-02-26T06:17:51.022Z,22.58
2023-02-26T06:18:53.348Z,21.13
2023-02-26T06:19:55.764Z,21.48
2023-02-26T06:20:58.257Z,21.77
2023-02-26T06:22:01.241Z,22.45
2023-02-26T06:23:04.551Z,20.77
2023-02-26T06:24:07.324Z,19.90
2023-02-26T06:25:09.919Z,20.15
2023-02-26T06:26:12.258Z,19.23
2023-02-26T06:27:14.665Z,19.85
2023-02-26T06:28:17.501Z,18.85
2023-02-26T06:29:20.778Z,19.75
2023-02-26T06:30:23.820Z,18.88
2023-02-26T06:31:26.651Z,19.25
2023-02-26T06:32:30.653Z,19.15
2023-02-26T06:33:33.196Z,19.73
2023-02-26T06:34:36.502Z,22.10
2023-02-26T06:35:39.015Z,53.95
2023-02-26T06:36:41.615Z,57.30
2023-02-26T06:37:43.956Z,45.78
2023-02-26T06:38:46.634Z,44.25
2023-02-26T06:39:49.010Z,39.00
2023-02-26T06:40:51.412Z,33.53
2023-02-26T06:41:53.708Z,28.10
2023-02-26T06:42:56.319Z,25.40
2023-02-26T06:43:58.744Z,26.10
2023-02-26T06:45:01.196Z,25.27
2023-02-26T06:46:04.649Z,23.15
2023-02-26T06:47:07.801Z,23.65
2023-02-26T06:48:10.163Z,22.33
2023-02-26T06:49:12.497Z,21.48
2023-02-26T06:50:14.977Z,22.15
2023-02-26T06:51:17.382Z,20.90
2023-02-26T06:52:19.785Z,19.27
2023-02-26T06:53:22.677Z,19.60
2023-02-26T06:54:25.039Z,19.23
2023-02-26T06:55:27.488Z,19.35
2023-02-26T06:56:30.179Z,19.85
2023-02-26T06:57:32.751Z,19.77
2023-02-26T06:58:35.127Z,18.73
2023-02-26T06:59:37.577Z,19.40
2023-02-26T07:00:41.454Z,18.67
2023-02-26T07:01:45.786Z,19.17
2023-02-26T07:02:48.321Z,16.98
2023-02-26T07:03:51.645Z,18.00
2023-02-26T07:04:54.083Z,17.55
2023-02-26T07:05:57.250Z,18.15
2023-02-26T07:06:59.698Z,17.73
2023-02-26T07:08:02.345Z,18.23
2023-02-26T07:09:05.494Z,18.50
2023-02-26T07:10:09.911Z,18.42
2023-02-26T07:11:12.384Z,16.98
2023-02-26T07:12:15.148Z,17.25
2023-02-26T07:13:18.092Z,17.02
2023-02-26T07:14:23.255Z,18.05
2023-02-26T07:15:29.225Z,16.45
2023-02-26T07:16:31.756Z,15.02
2023-02-26T07:17:34.138Z,14.77
2023-02-26T07:18:37.475Z,14.10
2023-02-26T07:19:40.045Z,13.52
2023-02-26T07:20:43.083Z,14.32
2023-02-26T07:21:45.431Z,13.65
2023-02-26T07:22:47.878Z,13.35
2023-02-26T07:23:50.249Z,15.45
2023-02-26T07:24:52.523Z,16.30
2023-02-26T07:25:56.307Z,15.93
2023-02-26T07:26:58.607Z,16.40
2023-02-26T07:28:01.511Z,16.17
2023-02-26T07:29:03.794Z,16.73
2023-02-26T07:30:07.598Z,16.30
2023-02-26T07:31:10.146Z,17.08
2023-02-26T07:32:12.569Z,16.15
2023-02-26T07:33:15.787Z,15.80
2023-02-26T07:34:18.147Z,16.45
2023-02-26T07:35:20.546Z,15.13
2023-02-26T07:36:22.922Z,14.68
2023-02-26T07:37:26.075Z,15.27
2023-02-26T07:38:28.472Z,16.90
2023-02-26T07:39:31.525Z,15.48
2023-02-26T07:40:34.190Z,17.33
2023-02-26T07:41:36.498Z,16.00
2023-02-26T07:42:39.063Z,16.25
2023-02-26T07:43:42.584Z,17.05
2023-02-26T07:44:45.511Z,15.70
2023-02-26T07:46:01.345Z,15.88
2023-02-26T07:47:03.945Z,15.35
2023-02-26T07:48:07.530Z,16.20
2023-02-26T07:49:09.975Z,15.98
2023-02-26T07:50:12.741Z,16.25
2023-02-26T07:51:20.308Z,15.50
2023-02-26T07:52:25.112Z,14.27
2023-02-26T07:53:34.564Z,26.02
2023-02-26T07:54:45.183Z,20.50
2023-02-26T07:55:53.623Z,23.90
2023-02-26T07:56:58.408Z,20.15
2023-02-26T07:58:01.120Z,17.90
2023-02-26T07:59:03.670Z,16.90
2023-02-26T08:00:09.731Z,16.88
2023-02-26T08:01:17.702Z,15.38
2023-02-26T08:02:20.502Z,15.32
2023-02-26T08:03:22.889Z,15.15
2023-02-26T08:04:33.003Z,15.60
2023-02-26T08:05:35.671Z,14.45
2023-02-26T08:06:38.134Z,15.07
2023-02-26T08:07:40.617Z,18.10
2023-02-26T08:08:43.249Z,17.10
2023-02-26T08:09:45.795Z,15.52
2023-02-26T08:10:48.078Z,16.58
2023-02-26T08:11:51.378Z,16.23
2023-02-26T08:12:53.943Z,13.90
2023-02-26T08:13:56.319Z,13.98
2023-02-26T08:14:59.065Z,14.00
2023-02-26T08:16:01.614Z,12.55
2023-02-26T08:17:04.306Z,13.85
2023-02-26T08:18:06.811Z,13.50
2023-02-26T08:19:09.301Z,14.05
2023-02-26T08:20:12.365Z,13.88
2023-02-26T08:21:14.864Z,13.13
2023-02-26T08:22:17.661Z,13.23
2023-02-26T08:23:20.168Z,11.60
2023-02-26T08:24:22.804Z,11.68
2023-02-26T08:25:25.219Z,11.20
2023-02-26T08:26:28.172Z,11.05
2023-02-26T08:27:30.711Z,11.73
2023-02-26T08:28:33.831Z,10.32
2023-02-26T08:29:36.336Z,9.88
2023-02-26T08:30:38.802Z,11.15
2023-02-26T08:31:41.280Z,11.02
2023-02-26T08:32:45.985Z,10.60
2023-02-26T08:33:48.586Z,10.48
2023-02-26T08:34:51.038Z,10.18
2023-02-26T08:35:53.717Z,11.45
2023-02-26T08:36:56.055Z,9.77
2023-02-26T08:37:58.738Z,9.23
2023-02-26T08:39:01.313Z,9.80
2023-02-26T08:40:04.907Z,9.40
2023-02-26T08:41:08.256Z,9.30
2023-02-26T08:42:12.294Z,9.60
2023-02-26T08:43:14.749Z,8.20
2023-02-26T08:44:17.197Z,9.32
2023-02-26T08:45:19.551Z,9.23
2023-02-26T08:46:22.384Z,8.63
2023-02-26T08:47:29.026Z,7.85
2023-02-26T08:48:34.298Z,8.27
2023-02-26T08:49:44.051Z,8.20
2023-02-26T08:50:46.930Z,8.57
2023-02-26T08:51:49.793Z,8.13
2023-02-26T08:52:52.695Z,9.45
2023-02-26T08:53:56.585Z,8.52
2023-02-26T08:54:58.921Z,8.10
2023-02-26T08:56:01.802Z,9.00
2023-02-26T08:57:04.327Z,8.88
2023-02-26T08:58:10.323Z,7.43
2023-02-26T08:59:13.677Z,8.75
2023-02-26T09:00:18.800Z,8.38
2023-02-26T09:01:21.763Z,7.72
2023-02-26T09:02:24.172Z,7.75
2023-02-26T09:03:26.960Z,7.97
2023-02-26T09:04:31.314Z,6.68
2023-02-26T09:05:34.170Z,6.85
2023-02-26T09:06:36.801Z,7.15
2023-02-26T09:07:39.396Z,7.90
2023-02-26T09:08:41.948Z,7.35
2023-02-26T09:09:45.418Z,7.10
2023-02-26T09:10:48.335Z,16.05
2023-02-26T09:11:50.806Z,12.77
2023-02-26T09:12:53.220Z,10.85
2023-02-26T09:13:55.598Z,11.43
2023-02-26T09:14:59.189Z,9.57
2023-02-26T09:16:01.965Z,8.52
2023-02-26T09:17:04.454Z,7.63
2023-02-26T09:18:07.449Z,7.28
2023-02-26T09:19:10.478Z,7.20
2023-02-26T09:20:14.132Z,7.13
2023-02-26T09:21:16.836Z,6.78
2023-02-26T09:22:19.231Z,6.50
2023-02-26T09:23:22.394Z,6.45
2023-02-26T09:24:25.110Z,6.82
2023-02-26T09:25:27.550Z,6.55
2023-02-26T09:26:30.012Z,6.55
2023-02-26T09:27:32.955Z,6.55
2023-02-26T09:28:35.510Z,6.53
2023-02-26T09:29:38.093Z,5.72
2023-02-26T09:30:40.615Z,6.28
2023-02-26T09:31:43.297Z,6.20
2023-02-26T09:32:45.897Z,5.72
2023-02-26T09:33:48.261Z,6.63
2023-02-26T09:34:51.138Z,5.57
2023-02-26T09:35:54.214Z,6.28
2023-02-26T09:36:56.641Z,5.70
2023-02-26T09:37:58.952Z,5.55
2023-02-26T09:39:01.309Z,5.90
2023-02-26T09:40:04.142Z,5.18
2023-02-26T09:41:15.304Z,6.15
2023-02-26T09:42:33.813Z,5.43
2023-02-26T09:44:07.065Z,4.95
2023-02-26T09:45:30.403Z,5.10
2023-02-26T09:46:47.043Z,5.63
2023-02-26T09:47:53.145Z,4.97
2023-02-26T09:49:10.030Z,5.22
2023-02-26T09:50:21.671Z,5.00
2023-02-26T09:51:24.965Z,5.20
2023-02-26T09:52:32.439Z,7.70
2023-02-26T09:53:41.296Z,6.75
2023-02-26T09:54:49.775Z,8.30
2023-02-26T09:55:58.748Z,8.30
2023-02-26T09:57:01.548Z,9.45
2023-02-26T09:58:06.033Z,8.13
2023-02-26T09:59:10.638Z,5.90
2023-02-26T10:00:51.893Z,6.35
2023-02-26T10:02:18.769Z,5.43
2023-02-26T10:03:32.163Z,7.47
2023-02-26T10:05:00.479Z,6.13
2023-02-26T10:06:21.422Z,5.97
2023-02-26T10:07:45.139Z,6.57
2023-02-26T10:09:11.561Z,6.80
2023-02-26T10:10:14.232Z,6.00
2023-02-26T10:11:36.382Z,7.10
2023-02-26T10:12:43.082Z,6.97
2023-02-26T10:14:01.212Z,6.63
2023-02-26T10:15:14.686Z,6.65
2023-02-26T10:16:28.510Z,6.20
2023-02-26T10:17:54.173Z,7.15
2023-02-26T10:19:10.976Z,6.80
2023-02-26T10:20:20.466Z,7.45
2023-02-26T10:21:34.059Z,7.10
2023-02-26T10:22:55.824Z,6.40
2023-02-26T10:24:02.742Z,6.78
2023-02-26T10:25:21.197Z,6.70
2023-02-26T10:26:38.360Z,6.55
2023-02-26T10:28:08.611Z,6.88
2023-02-26T10:29:34.505Z,7.03
2023-02-26T10:30:44.387Z,6.15
2023-02-26T10:31:56.034Z,6.93
2023-02-26T10:33:10.944Z,8.85
2023-02-26T10:34:51.214Z,7.70
2023-02-26T10:35:59.359Z,7.60
2023-02-26T10:37:16.314Z,7.30
2023-02-26T10:38:24.721Z,7.50
2023-02-26T10:39:47.754Z,7.38
2023-02-26T10:40:55.336Z,7.00
2023-02-26T10:42:02.818Z,6.90
2023-02-26T10:43:40.344Z,6.75
2023-02-26T10:45:16.515Z,7.00
2023-02-26T10:46:23.214Z,7.03
2023-02-26T10:47:55.425Z,7.07
2023-02-26T10:49:19.075Z,7.18
2023-02-26T10:50:23.608Z,6.75
2023-02-26T10:51:33.597Z,6.80
2023-02-26T10:52:36.783Z,7.20
2023-02-26T10:53:42.070Z,6.97
2023-02-26T10:55:19.884Z,6.65
2023-02-26T10:56:27.472Z,7.53
2023-02-26T10:57:37.014Z,7.75
2023-02-26T10:58:40.061Z,7.40
2023-02-26T10:59:42.419Z,6.28
2023-02-26T11:00:48.795Z,7.32
2023-02-26T11:01:52.597Z,7.18
2023-02-26T11:02:56.187Z,6.47
2023-02-26T11:04:03.236Z,7.15
2023-02-26T11:05:13.266Z,6.75
2023-02-26T11:06:30.100Z,6.63
2023-02-26T11:07:36.293Z,6.13
2023-02-26T11:08:47.913Z,6.68
2023-02-26T11:09:50.463Z,6.55
2023-02-26T11:10:56.365Z,6.70
2023-02-26T11:12:07.579Z,5.78
2023-02-26T11:13:10.054Z,6.55
2023-02-26T11:14:12.644Z,7.85
2023-02-26T11:15:18.836Z,6.65
2023-02-26T11:16:21.377Z,8.10
2023-02-26T11:17:29.334Z,6.63
2023-02-26T11:18:36.753Z,8.27
2023-02-26T11:19:52.378Z,8.55
2023-02-26T11:20:58.251Z,7.47
2023-02-26T11:22:03.912Z,7.03
2023-02-26T11:23:12.610Z,7.68
2023-02-26T11:24:33.805Z,6.93
2023-02-26T11:25:37.281Z,6.13
2023-02-26T11:26:51.103Z,6.82
2023-02-26T11:28:04.192Z,6.30
2023-02-26T11:29:06.921Z,6.18
2023-02-26T11:30:22.066Z,6.28
2023-02-26T11:31:26.670Z,6.70
2023-02-26T11:32:37.919Z,6.85
2023-02-26T11:33:45.163Z,6.82
2023-02-26T11:34:54.704Z,6.50
2023-02-26T11:36:09.744Z,6.30
2023-02-26T11:37:12.510Z,6.15
2023-02-26T11:38:25.656Z,6.10
2023-02-26T11:39:32.930Z,6.28
2023-02-26T11:40:39.814Z,6.80
2023-02-26T11:41:44.664Z,6.20
2023-02-26T11:42:57.691Z,6.60
2023-02-26T11:44:06.999Z,5.88
2023-02-26T11:45:16.855Z,6.15
2023-02-26T11:46:25.067Z,6.43
2023-02-26T11:47:30.595Z,6.10
2023-02-26T11:48:48.324Z,5.82
2023-02-26T11:49:56.646Z,6.47
2023-02-26T11:51:01.279Z,5.82
2023-02-26T11:52:16.942Z,6.68
2023-02-26T11:53:31.212Z,6.05
2023-02-26T11:54:37.327Z,6.07
2023-02-26T11:55:50.298Z,5.85
2023-02-26T11:57:00.362Z,6.25
2023-02-26T11:58:16.276Z,5.65
2023-02-26T11:59:18.584Z,5.88
2023-02-26T12:00:32.254Z,5.55
2023-02-26T12:01:36.409Z,5.82
2023-02-26T12:02:40.235Z,6.45
2023-02-26T12:03:47.156Z,6.00
2023-02-26T12:04:52.817Z,6.03
2023-02-26T12:05:56.387Z,6.10
2023-02-26T12:06:58.736Z,6.00
2023-02-26T12:08:07.691Z,6.15
2023-02-26T12:09:13.402Z,6.38
2023-02-26T12:10:26.452Z,5.93
2023-02-26T12:11:44.268Z,5.78
2023-02-26T12:13:25.954Z,6.03
2023-02-26T12:14:43.613Z,5.60
2023-02-26T12:16:20.667Z,5.32
2023-02-26T12:18:02.854Z,13.00
2023-02-26T12:19:16.331Z,9.40
2023-02-26T12:20:38.297Z,8.27
2023-02-26T12:22:05.407Z,8.80
2023-02-26T12:23:38.732Z,7.50
2023-02-26T12:24:56.706Z,6.25
2023-02-26T12:26:18.427Z,6.97
2023-02-26T12:28:55.060Z,6.82
2023-02-26T12:30:28.997Z,6.38
2023-02-26T12:31:42.798Z,7.55
2023-02-26T12:33:20.415Z,6.80
2023-02-26T12:34:57.018Z,7.05
2023-02-26T12:36:23.766Z,6.60
2023-02-26T12:37:31.031Z,6.50
2023-02-26T12:38:51.573Z,7.10
2023-02-26T12:39:58.900Z,6.63
2023-02-26T12:41:22.871Z,7.32
2023-02-26T12:42:58.866Z,7.05
2023-02-26T12:44:14.598Z,6.40
2023-02-26T12:45:35.702Z,6.43
2023-02-26T12:46:55.451Z,6.03
2023-02-26T12:48:42.865Z,6.65
2023-02-26T12:49:51.188Z,6.50
2023-02-26T12:51:11.381Z,6.63
2023-02-26T12:52:51.432Z,6.07
2023-02-26T12:53:59.840Z,6.45
2023-02-26T12:55:21.435Z,6.43
2023-02-26T12:57:52.370Z,6.22
2023-02-26T12:59:24.034Z,5.60
2023-02-26T13:00:38.046Z,5.95
2023-02-26T13:02:01.482Z,6.20
2023-02-26T13:03:30.809Z,5.97
2023-02-26T13:04:55.810Z,5.72
2023-02-26T13:06:13.014Z,5.63
2023-02-26T13:07:20.907Z,6.00
2023-02-26T13:08:38.737Z,5.30
2023-02-26T13:09:59.953Z,5.80
2023-02-26T13:11:29.362Z,5.97
2023-02-26T13:12:58.723Z,5.75
2023-02-26T13:14:38.583Z,6.10
2023-02-26T13:16:02.511Z,5.65
2023-02-26T13:17:20.652Z,5.80
2023-02-26T13:18:36.548Z,5.60
2023-02-26T13:19:44.640Z,5.95
2023-02-26T13:21:10.572Z,5.75
2023-02-26T13:22:19.983Z,5.18
2023-02-26T13:23:41.380Z,5.70
2023-02-26T13:25:00.782Z,5.25
2023-02-26T13:26:08.935Z,5.95
2023-02-26T13:27:21.008Z,5.50
2023-02-26T13:28:45.536Z,5.28
2023-02-26T13:31:33.357Z,4.75
2023-02-26T13:32:43.018Z,5.50
2023-02-26T13:33:56.311Z,5.32
2023-02-26T13:35:04.916Z,5.10
2023-02-26T13:36:16.499Z,5.20
2023-02-26T13:37:47.823Z,5.20
2023-02-26T13:39:24.946Z,4.97
2023-02-26T13:40:55.646Z,5.00
2023-02-26T13:44:40.214Z,4.72
2023-02-26T13:46:13.002Z,4.65
2023-02-26T13:47:45.733Z,4.65
2023-02-26T13:49:07.767Z,5.03
2023-02-26T13:50:44.843Z,4.88
2023-02-26T13:51:50.930Z,5.43
2023-02-26T13:53:01.000Z,4.63
2023-02-26T13:54:18.483Z,5.10
2023-02-26T13:55:40.752Z,4.90
2023-02-26T13:57:12.030Z,5.32
2023-02-26T13:58:30.414Z,4.72
2023-02-26T13:59:54.937Z,3.50
2023-02-26T14:01:36.592Z,4.03
2023-02-26T14:03:15.921Z,29.48
2023-02-26T14:04:26.485Z,13.40
2023-02-26T14:05:53.609Z,7.47
2023-02-26T14:07:15.572Z,7.97
2023-02-26T14:08:23.966Z,19.65
2023-02-26T14:10:04.640Z,15.73
2023-02-26T14:11:42.642Z,11.43
2023-02-26T14:13:19.520Z,7.95
2023-02-26T14:14:24.450Z,7.65
2023-02-26T14:15:46.365Z,7.15
2023-02-26T14:17:15.916Z,6.60
2023-02-26T14:18:34.345Z,5.82
2023-02-26T14:20:20.063Z,6.20
2023-02-26T14:23:43.808Z,5.80
2023-02-26T14:24:58.536Z,6.03
2023-02-26T14:26:15.869Z,5.38
2023-02-26T14:27:26.233Z,5.78
2023-02-26T14:28:38.623Z,5.33
2023-02-26T14:30:04.133Z,5.50
2023-02-26T14:31:24.926Z,5.63
2023-02-26T14:32:44.999Z,4.90
2023-02-26T14:34:15.595Z,4.30
2023-02-26T14:35:38.540Z,7.75
2023-02-26T14:36:53.659Z,10.13
2023-02-26T14:38:10.689Z,53.00
2023-02-26T14:39:45.844Z,35.88
2023-02-26T14:40:59.748Z,32.92
2023-02-26T14:43:01.642Z,30.20
2023-02-26T14:44:25.583Z,21.90
2023-02-26T14:45:54.928Z,18.58
2023-02-26T14:47:03.503Z,13.27
2023-02-26T14:48:17.597Z,13.02
2023-02-26T14:49:39.530Z,11.45
2023-02-26T14:50:56.050Z,9.93
2023-02-26T14:52:39.468Z,8.75
2023-02-26T14:54:16.810Z,8.77
2023-02-26T14:55:48.858Z,8.35
2023-02-26T14:57:26.460Z,9.02
2023-02-26T14:59:08.534Z,7.35
2023-02-26T15:00:39.640Z,7.00
2023-02-26T15:02:17.868Z,7.93
2023-02-26T15:03:57.808Z,7.72
2023-02-26T15:05:22.012Z,7.70
2023-02-26T15:07:06.334Z,7.30
2023-02-26T15:08:23.707Z,6.80
2023-02-26T15:09:47.521Z,7.15
2023-02-26T15:11:27.971Z,7.85
2023-02-26T15:13:05.590Z,7.47
2023-02-26T15:14:33.812Z,6.85
2023-02-26T15:15:48.105Z,6.53
2023-02-26T15:17:11.662Z,6.97
2023-02-26T15:18:23.584Z,6.45
2023-02-26T15:20:06.774Z,7.07
2023-02-26T15:21:38.088Z,7.07
2023-02-26T15:23:08.814Z,7.90
2023-02-26T15:24:17.342Z,7.18
2023-02-26T15:25:41.376Z,6.95
2023-02-26T15:26:58.733Z,6.80
2023-02-26T15:28:06.370Z,6.80
2023-02-26T15:29:15.835Z,7.10
2023-02-26T15:30:22.828Z,14.77
2023-02-26T15:31:34.457Z,19.48
2023-02-26T15:32:39.116Z,11.60
2023-02-26T15:33:42.442Z,10.05
2023-02-26T15:35:02.343Z,9.05
2023-02-26T15:36:12.593Z,8.27
2023-02-26T15:37:26.350Z,7.75
2023-02-26T15:38:48.444Z,8.13
2023-02-26T15:39:55.427Z,8.00